Time;durP1;ratioP1;P1;durP2;ratioP2;P2;SDS_P1;SDS_P2;PMS_P1;PMS_P2;Temp;Humidity;BMP_temperature;BMP_pressure;BME280_temperature;BME280_humidity;BME280_pressure;Samples;Min_cycle;Max_cycle;Signal;HPM_P1;HPM_P2
2023/07/19 00:00:44;;;;;;;7.38;4.15;;;;;;;;;;5057707;28;20049;-78
2023/07/19 00:03:10;;;;;;;8.25;4.18;;;;;;;;;;5057011;28;20037;-78
2023/07/19 00:05:36;;;;;;;7.70;3.60;;;;;;;;;;5056146;28;20120;-78
2023/07/19 00:08:04;;;;;;;9.15;3.58;;;;;;;;;;5056336;28;20045;-77
2023/07/19 00:10:30;;;;;;;7.90;3.58;;;;;;;;;;5059851;28;20041;-78
2023/07/19 00:12:56;;;;;;;7.47;3.80;;;;;;;;;;5062146;28;20067;-78
2023/07/19 00:15:22;;;;;;;7.60;3.47;;;;;;;;;;5060252;28;20051;-78
2023/07/19 00:17:49;;;;;;;9.10;3.67;;;;;;;;;;5061409;28;20056;-78
2023/07/19 00:20:15;;;;;;;8.32;3.50;;;;;;;;;;5060942;28;20047;-78
2023/07/19 00:22:41;;;;;;;9.55;4.00;;;;;;;;;;5060128;28;20104;-77
2023/07/19 00:25:07;;;;;;;10.48;3.60;;;;;;;;;;5059863;28;20044;-78
2023/07/19 00:27:33;;;;;;;9.00;3.70;;;;;;;;;;5059444;28;20043;-78
2023/07/19 00:30:00;;;;;;;8.27;3.60;;;;;;;;;;5059784;28;20075;-79
2023/07/19 00:32:26;;;;;;;9.85;4.47;;;;;;;;;;5056436;28;20064;-79
2023/07/19 00:34:52;;;;;;;9.55;3.67;;;;;;;;;;5057646;28;20124;-78
2023/07/19 00:37:18;;;;;;;8.77;3.90;;;;;;;;;;5059708;28;20495;-79
2023/07/19 00:39:44;;;;;;;8.57;3.70;;;;;;;;;;5041490;28;20052;-78
2023/07/19 00:42:10;;;;;;;7.97;3.67;;;;;;;;;;5060079;28;20525;-78
2023/07/19 00:44:36;;;;;;;8.52;4.18;;;;;;;;;;5059022;28;20056;-77
2023/07/19 00:47:03;;;;;;;11.25;4.40;;;;;;;;;;5042019;28;20060;-77
2023/07/19 00:49:31;;;;;;;8.98;4.57;;;;;;;;;;5059369;28;20403;-78
2023/07/19 00:51:57;;;;;;;8.98;4.78;;;;;;;;;;5059061;28;20037;-79
2023/07/19 00:54:23;;;;;;;8.55;4.57;;;;;;;;;;5059303;28;20044;-77
2023/07/19 00:56:49;;;;;;;9.82;4.85;;;;;;;;;;5041086;28;20048;-78
2023/07/19 00:59:16;;;;;;;11.32;5.07;;;;;;;;;;5058750;28;20041;-78
2023/07/19 01:01:45;;;;;;;9.27;4.90;;;;;;;;;;5059483;28;20045;-78
2023/07/19 01:04:12;;;;;;;9.45;4.55;;;;;;;;;;5059493;28;20492;-78
2023/07/19 01:06:38;;;;;;;9.48;4.47;;;;;;;;;;5058283;28;20037;-79
2023/07/19 01:09:04;;;;;;;9.20;4.70;;;;;;;;;;5058187;28;20102;-78
2023/07/19 01:11:31;;;;;;;9.75;4.35;;;;;;;;;;5057637;28;20068;-79
2023/07/19 01:13:57;;;;;;;10.95;4.40;;;;;;;;;;5041103;28;20045;-78
2023/07/19 01:16:23;;;;;;;8.27;4.50;;;;;;;;;;5058685;28;20489;-78
2023/07/19 01:18:50;;;;;;;8.40;4.07;;;;;;;;;;5057992;28;20503;-78
2023/07/19 01:21:16;;;;;;;7.60;4.40;;;;;;;;;;5055881;28;20559;-78
2023/07/19 01:23:43;;;;;;;8.68;4.32;;;;;;;;;;5057626;28;20056;-80
2023/07/19 01:26:09;;;;;;;9.50;4.10;;;;;;;;;;5057939;28;20124;-79
2023/07/19 01:28:35;;;;;;;7.47;4.22;;;;;;;;;;5056774;28;20499;-79
2023/07/19 01:31:05;;;;;;;7.95;4.45;;;;;;;;;;5042010;28;20041;-78
2023/07/19 01:33:31;;;;;;;7.15;4.20;;;;;;;;;;5037423;28;20136;-79
2023/07/19 01:35:57;;;;;;;9.50;4.40;;;;;;;;;;5037708;28;20044;-79
2023/07/19 01:38:23;;;;;;;7.72;4.10;;;;;;;;;;5037601;28;20480;-78
2023/07/19 01:40:49;;;;;;;11.90;4.68;;;;;;;;;;5051241;28;20449;-78
2023/07/19 01:43:15;;;;;;;8.07;3.85;;;;;;;;;;5057492;28;20045;-78
2023/07/19 01:45:42;;;;;;;7.55;4.30;;;;;;;;;;5057121;28;20053;-78
2023/07/19 01:48:08;;;;;;;10.43;4.55;;;;;;;;;;5037586;28;20056;-78
2023/07/19 01:50:34;;;;;;;8.60;4.43;;;;;;;;;;5055862;28;20053;-78
2023/07/19 01:53:00;;;;;;;9.80;4.82;;;;;;;;;;5056989;28;20178;-80
2023/07/19 01:55:26;;;;;;;10.15;5.05;;;;;;;;;;5057243;28;20101;-78
2023/07/19 01:57:52;;;;;;;11.10;4.88;;;;;;;;;;5056449;28;20041;-78
2023/07/19 02:00:18;;;;;;;8.27;4.95;;;;;;;;;;5057671;28;20049;-78
2023/07/19 02:02:44;;;;;;;10.82;4.53;;;;;;;;;;5057142;28;20499;-79
2023/07/19 02:05:10;;;;;;;8.95;4.75;;;;;;;;;;5057611;28;20040;-78
2023/07/19 02:07:36;;;;;;;8.52;4.28;;;;;;;;;;5056363;28;20617;-78
2023/07/19 02:10:03;;;;;;;8.32;4.38;;;;;;;;;;5056629;28;20051;-79
2023/07/19 02:12:29;;;;;;;10.88;4.50;;;;;;;;;;5056856;28;20051;-78
2023/07/19 02:14:55;;;;;;;7.78;4.05;;;;;;;;;;5056163;28;20822;-79
2023/07/19 02:17:22;;;;;;;10.15;4.75;;;;;;;;;;5052638;28;20053;-79
2023/07/19 02:19:48;;;;;;;14.73;4.43;;;;;;;;;;5055743;28;20091;-79
2023/07/19 02:22:15;;;;;;;10.65;4.88;;;;;;;;;;5038757;28;20048;-79
2023/07/19 02:24:42;;;;;;;10.35;4.45;;;;;;;;;;5056006;28;20051;-78
2023/07/19 02:27:08;;;;;;;8.80;4.85;;;;;;;;;;5037531;28;20044;-79
2023/07/19 02:29:34;;;;;;;10.98;4.90;;;;;;;;;;5055880;28;20521;-79
2023/07/19 02:32:00;;;;;;;10.82;4.95;;;;;;;;;;5056046;28;20181;-80
2023/07/19 02:34:26;;;;;;;8.73;4.55;;;;;;;;;;5056659;28;20045;-79
2023/07/19 02:36:52;;;;;;;9.18;4.72;;;;;;;;;;5055576;28;20056;-79
2023/07/19 02:39:20;;;;;;;9.98;4.82;;;;;;;;;;5056353;28;20120;-78
2023/07/19 02:41:46;;;;;;;9.93;4.47;;;;;;;;;;5056103;28;20049;-79
2023/07/19 02:44:12;;;;;;;9.35;4.85;;;;;;;;;;5056407;28;20053;-78
2023/07/19 02:46:38;;;;;;;9.07;4.63;;;;;;;;;;5037208;28;20072;-78
2023/07/19 02:49:04;;;;;;;12.77;5.00;;;;;;;;;;5047873;28;20589;-79
2023/07/19 02:51:30;;;;;;;8.40;4.47;;;;;;;;;;5035913;28;20045;-78
2023/07/19 02:53:56;;;;;;;8.48;4.70;;;;;;;;;;5035304;28;20091;-79
2023/07/19 02:56:22;;;;;;;8.13;4.78;;;;;;;;;;5053060;28;20183;-78
2023/07/19 02:58:48;;;;;;;9.85;5.18;;;;;;;;;;5054648;28;20037;-78
2023/07/19 03:01:15;;;;;;;8.52;5.38;;;;;;;;;;5055533;28;20044;-78
2023/07/19 03:03:43;;;;;;;9.70;5.13;;;;;;;;;;5054703;28;20044;-77
2023/07/19 03:06:10;;;;;;;8.60;4.80;;;;;;;;;;5054978;28;20442;-76
2023/07/19 03:08:37;;;;;;;9.48;5.28;;;;;;;;;;5052580;28;20053;-76
2023/07/19 03:11:06;;;;;;;8.27;4.72;;;;;;;;;;5037311;28;20457;-77
2023/07/19 03:13:32;;;;;;;9.80;5.57;;;;;;;;;;5054695;28;20179;-78
2023/07/19 03:15:58;;;;;;;10.35;5.88;;;;;;;;;;5054257;28;20097;-77
2023/07/19 03:18:24;;;;;;;9.98;5.45;;;;;;;;;;5034997;28;20052;-78
2023/07/19 03:20:57;;;;;;;9.65;5.72;;;;;;;;;;5054580;28;20072;-77
2023/07/19 03:23:24;;;;;;;9.95;5.68;;;;;;;;;;5036948;28;20485;-78
2023/07/19 03:25:50;;;;;;;8.10;5.55;;;;;;;;;;5054424;28;20118;-78
2023/07/19 03:28:16;;;;;;;8.65;4.85;;;;;;;;;;5052243;28;20055;-78
2023/07/19 03:30:42;;;;;;;10.23;5.03;;;;;;;;;;5053658;28;20359;-78
2023/07/19 03:33:08;;;;;;;11.07;5.45;;;;;;;;;;5053906;28;20079;-78
2023/07/19 03:35:34;;;;;;;12.77;5.72;;;;;;;;;;5053936;28;20056;-78
2023/07/19 03:38:00;;;;;;;14.70;5.90;;;;;;;;;;5053656;28;20514;-78
2023/07/19 03:40:26;;;;;;;8.75;5.07;;;;;;;;;;5054877;28;20051;-78
2023/07/19 03:42:53;;;;;;;10.05;4.97;;;;;;;;;;5053862;28;20117;-77
2023/07/19 03:45:19;;;;;;;9.90;5.15;;;;;;;;;;5052138;28;20470;-78
2023/07/19 03:47:45;;;;;;;11.82;5.07;;;;;;;;;;5054291;28;20089;-78
2023/07/19 03:50:11;;;;;;;10.32;4.93;;;;;;;;;;5054152;28;20494;-78
2023/07/19 03:52:37;;;;;;;10.32;4.90;;;;;;;;;;5054678;28;20048;-78
2023/07/19 03:55:03;;;;;;;10.00;5.63;;;;;;;;;;5055000;28;20053;-78
2023/07/19 03:57:30;;;;;;;10.55;5.10;;;;;;;;;;5053866;28;20048;-78
2023/07/19 03:59:56;;;;;;;10.13;5.53;;;;;;;;;;5034665;28;20037;-78
2023/07/19 04:02:22;;;;;;;13.75;5.80;;;;;;;;;;5035868;28;20055;-78
2023/07/19 04:04:49;;;;;;;10.98;5.28;;;;;;;;;;5055214;28;20132;-77
2023/07/19 04:07:15;;;;;;;12.30;5.07;;;;;;;;;;5055358;28;20053;-78
2023/07/19 04:09:41;;;;;;;14.23;6.10;;;;;;;;;;5051188;28;20063;-78
2023/07/19 04:12:08;;;;;;;14.45;5.95;;;;;;;;;;5018295;28;20080;-79
2023/07/19 04:14:34;;;;;;;8.45;5.57;;;;;;;;;;5035652;28;20049;-79
2023/07/19 04:17:00;;;;;;;11.00;5.40;;;;;;;;;;5050808;28;20040;-77
2023/07/19 04:19:26;;;;;;;11.65;6.15;;;;;;;;;;5055688;28;20523;-78
2023/07/19 04:21:52;;;;;;;11.05;6.07;;;;;;;;;;5057045;28;20055;-78
2023/07/19 04:24:18;;;;;;;11.68;6.32;;;;;;;;;;5055363;28;20044;-79
2023/07/19 04:26:44;;;;;;;11.50;6.38;;;;;;;;;;5055447;28;20037;-78
2023/07/19 04:29:10;;;;;;;9.88;6.28;;;;;;;;;;5056015;28;20045;-78
2023/07/19 04:31:36;;;;;;;10.70;6.72;;;;;;;;;;5055849;28;20110;-77
2023/07/19 04:34:02;;;;;;;11.73;6.35;;;;;;;;;;5056490;28;20055;-78
2023/07/19 04:36:30;;;;;;;9.70;7.05;;;;;;;;;;5055238;28;20499;-78
2023/07/19 04:38:56;;;;;;;14.48;7.22;;;;;;;;;;5037549;28;20049;-77
2023/07/19 04:41:22;;;;;;;11.13;6.82;;;;;;;;;;5056252;28;20053;-78
2023/07/19 04:43:48;;;;;;;10.98;6.75;;;;;;;;;;5056146;28;20426;-78
2023/07/19 04:46:17;;;;;;;13.15;6.43;;;;;;;;;;5054178;28;20057;-78
2023/07/19 04:48:43;;;;;;;11.15;6.75;;;;;;;;;;5056497;28;20041;-78
2023/07/19 04:51:09;;;;;;;13.38;7.15;;;;;;;;;;5055893;28;20055;-78
2023/07/19 04:53:35;;;;;;;10.70;6.53;;;;;;;;;;5056505;28;20045;-78
2023/07/19 04:56:01;;;;;;;13.55;7.55;;;;;;;;;;5057143;28;20057;-78
2023/07/19 04:58:27;;;;;;;10.82;6.57;;;;;;;;;;5059838;28;20045;-78
2023/07/19 05:00:54;;;;;;;12.07;6.78;;;;;;;;;;5060233;28;20120;-78
2023/07/19 05:03:21;;;;;;;12.18;7.13;;;;;;;;;;5041054;28;20045;-77
2023/07/19 05:05:50;;;;;;;10.88;6.88;;;;;;;;;;5058414;28;20044;-79
2023/07/19 05:08:17;;;;;;;11.57;7.05;;;;;;;;;;5058337;28;20041;-78
2023/07/19 05:10:43;;;;;;;11.07;7.05;;;;;;;;;;5059018;28;20140;-78
2023/07/19 05:13:09;;;;;;;13.30;7.28;;;;;;;;;;5060039;28;20049;-77
2023/07/19 05:15:35;;;;;;;11.13;6.50;;;;;;;;;;5041783;28;20048;-78
2023/07/19 05:18:01;;;;;;;10.02;6.95;;;;;;;;;;5058622;28;20061;-78
2023/07/19 05:20:27;;;;;;;11.10;7.15;;;;;;;;;;5060469;28;20128;-78
2023/07/19 05:22:53;;;;;;;11.05;5.70;;;;;;;;;;5042572;28;20124;-77
2023/07/19 05:25:19;;;;;;;12.35;7.13;;;;;;;;;;5060377;28;20404;-79
2023/07/19 05:27:46;;;;;;;12.15;6.78;;;;;;;;;;5059119;28;20045;-79
2023/07/19 05:30:12;;;;;;;17.17;7.88;;;;;;;;;;5042500;28;20044;-78
2023/07/19 05:32:38;;;;;;;10.68;7.05;;;;;;;;;;5041771;28;20502;-78
2023/07/19 05:35:04;;;;;;;14.75;7.25;;;;;;;;;;5059844;28;20372;-78
2023/07/19 05:37:30;;;;;;;10.32;6.82;;;;;;;;;;5050807;28;20045;-78
2023/07/19 05:39:56;;;;;;;12.25;7.00;;;;;;;;;;5038500;28;20056;-79
2023/07/19 05:42:22;;;;;;;12.73;7.28;;;;;;;;;;5039519;28;20080;-78
2023/07/19 05:44:48;;;;;;;10.05;6.75;;;;;;;;;;5039335;28;20132;-77
2023/07/19 05:47:15;;;;;;;13.55;6.80;;;;;;;;;;5052443;28;20045;-78
2023/07/19 05:49:41;;;;;;;11.73;6.38;;;;;;;;;;5059467;28;20075;-79
2023/07/19 05:52:07;;;;;;;13.70;6.90;;;;;;;;;;5059893;28;20064;-78
2023/07/19 05:54:33;;;;;;;9.75;6.80;;;;;;;;;;5041576;28;20053;-79
2023/07/19 05:56:59;;;;;;;9.55;7.03;;;;;;;;;;5041258;28;20049;-78
2023/07/19 05:59:25;;;;;;;17.88;7.50;;;;;;;;;;5059674;28;20060;-78
2023/07/19 06:01:51;;;;;;;14.05;6.90;;;;;;;;;;5058593;28;20102;-78
2023/07/19 06:04:17;;;;;;;11.10;6.50;;;;;;;;;;5039311;28;20044;-78
2023/07/19 06:06:44;;;;;;;10.93;6.53;;;;;;;;;;5057581;28;20406;-78
2023/07/19 06:09:10;;;;;;;12.18;7.30;;;;;;;;;;5058588;28;20084;-78
2023/07/19 06:11:36;;;;;;;11.07;6.88;;;;;;;;;;5058755;28;20053;-78
2023/07/19 06:14:04;;;;;;;10.00;6.63;;;;;;;;;;5057476;28;20051;-78
2023/07/19 06:16:30;;;;;;;11.95;7.00;;;;;;;;;;5059762;28;20037;-78
2023/07/19 06:18:56;;;;;;;10.18;6.53;;;;;;;;;;5058744;28;20124;-77
2023/07/19 06:21:24;;;;;;;12.43;6.30;;;;;;;;;;5058738;28;20045;-78
2023/07/19 06:23:50;;;;;;;10.63;6.05;;;;;;;;;;5038749;28;20049;-78
2023/07/19 06:26:16;;;;;;;11.10;5.93;;;;;;;;;;5036708;28;20091;-79
2023/07/19 06:28:42;;;;;;;10.93;5.97;;;;;;;;;;5055393;28;20495;-80
2023/07/19 06:31:09;;;;;;;12.88;6.57;;;;;;;;;;5057371;28;20044;-78
2023/07/19 06:33:35;;;;;;;11.93;6.32;;;;;;;;;;5059393;28;20399;-77
2023/07/19 06:36:01;;;;;;;12.52;5.70;;;;;;;;;;5053091;28;20037;-78
2023/07/19 06:38:28;;;;;;;9.98;5.68;;;;;;;;;;5055774;28;20053;-78
2023/07/19 06:40:54;;;;;;;11.82;5.70;;;;;;;;;;5057250;28;20157;-80
2023/07/19 06:43:20;;;;;;;10.25;5.93;;;;;;;;;;5042183;28;20408;-79
2023/07/19 06:45:46;;;;;;;8.95;4.78;;;;;;;;;;5060621;28;20071;-79
2023/07/19 06:48:12;;;;;;;9.73;4.95;;;;;;;;;;5061591;28;20047;-79
2023/07/19 06:50:38;;;;;;;9.52;5.53;;;;;;;;;;5061848;28;20045;-79
2023/07/19 06:53:04;;;;;;;10.88;5.40;;;;;;;;;;5062249;28;20123;-79
2023/07/19 06:55:30;;;;;;;10.43;5.00;;;;;;;;;;5062345;28;20045;-80
2023/07/19 06:57:57;;;;;;;8.30;4.70;;;;;;;;;;5062077;28;20055;-79
2023/07/19 07:00:23;;;;;;;8.90;4.95;;;;;;;;;;5061427;28;20783;-79
2023/07/19 07:02:49;;;;;;;11.48;5.00;;;;;;;;;;5061415;28;20053;-79
2023/07/19 07:05:15;;;;;;;9.25;5.00;;;;;;;;;;5043085;28;20159;-78
2023/07/19 07:07:41;;;;;;;9.50;4.90;;;;;;;;;;5053402;28;20049;-79
2023/07/19 07:10:09;;;;;;;7.40;4.38;;;;;;;;;;5061423;28;20105;-79
2023/07/19 07:12:36;;;;;;;7.35;3.90;;;;;;;;;;5061210;28;20045;-79
2023/07/19 07:15:02;;;;;;;9.75;4.32;;;;;;;;;;5061099;28;20037;-79
2023/07/19 07:17:29;;;;;;;7.90;4.15;;;;;;;;;;5061038;28;20111;-79
2023/07/19 07:19:55;;;;;;;8.38;3.92;;;;;;;;;;5063000;28;20114;-79
2023/07/19 07:22:21;;;;;;;7.30;3.60;;;;;;;;;;5062535;28;20487;-80
2023/07/19 07:24:47;;;;;;;8.02;3.38;;;;;;;;;;5063092;28;20124;-79
2023/07/19 07:27:13;;;;;;;8.35;4.30;;;;;;;;;;5062459;28;20033;-79
2023/07/19 07:29:41;;;;;;;8.48;4.30;;;;;;;;;;5050959;28;20042;-79
2023/07/19 07:32:10;;;;;;;8.70;4.53;;;;;;;;;;5041903;28;20088;-79
2023/07/19 07:34:36;;;;;;;8.80;4.88;;;;;;;;;;5042018;28;20081;-79
2023/07/19 07:37:02;;;;;;;7.60;4.63;;;;;;;;;;5046618;28;20045;-79
2023/07/19 07:39:29;;;;;;;8.30;3.95;;;;;;;;;;5060387;28;20045;-79
2023/07/19 07:41:55;;;;;;;8.70;4.18;;;;;;;;;;5061068;28;20045;-79
2023/07/19 07:44:22;;;;;;;7.20;3.88;;;;;;;;;;5060445;28;20060;-80
2023/07/19 07:46:49;;;;;;;6.43;3.53;;;;;;;;;;5060984;28;20492;-80
2023/07/19 07:49:15;;;;;;;7.88;3.45;;;;;;;;;;5060761;28;20112;-79
2023/07/19 07:51:42;;;;;;;9.98;4.18;;;;;;;;;;5043207;28;20049;-79
2023/07/19 07:54:08;;;;;;;7.22;3.63;;;;;;;;;;5043004;28;20045;-80
2023/07/19 07:56:34;;;;;;;8.77;3.60;;;;;;;;;;5060106;28;20044;-79
2023/07/19 07:59:01;;;;;;;7.45;3.35;;;;;;;;;;5060055;28;20045;-79
2023/07/19 08:01:27;;;;;;;7.55;3.38;;;;;;;;;;5041866;28;20116;-78
2023/07/19 08:03:53;;;;;;;8.93;3.40;;;;;;;;;;5059106;28;20047;-79
2023/07/19 08:06:20;;;;;;;7.53;3.55;;;;;;;;;;5060125;28;20041;-79
2023/07/19 08:08:46;;;;;;;7.15;3.53;;;;;;;;;;5060042;28;20041;-79
2023/07/19 08:11:12;;;;;;;7.57;3.20;;;;;;;;;;5025524;28;20057;-79
2023/07/19 08:13:38;;;;;;;9.23;3.53;;;;;;;;;;5059410;28;20053;-78
2023/07/19 08:16:07;;;;;;;10.38;3.53;;;;;;;;;;5056153;28;20415;-78
2023/07/19 08:18:36;;;;;;;8.93;3.40;;;;;;;;;;5026043;28;20128;-78
2023/07/19 08:21:02;;;;;;;8.27;3.33;;;;;;;;;;5056581;28;20480;-77
2023/07/19 08:23:29;;;;;;;9.18;3.55;;;;;;;;;;5054072;28;20509;-78
2023/07/19 08:25:56;;;;;;;7.70;3.13;;;;;;;;;;5049905;28;20116;-79
2023/07/19 08:28:23;;;;;;;6.65;2.90;;;;;;;;;;5061584;28;20063;-79
2023/07/19 08:30:49;;;;;;;9.40;3.40;;;;;;;;;;5062674;28;20052;-79
2023/07/19 08:33:15;;;;;;;7.20;2.85;;;;;;;;;;5045604;28;20068;-78
2023/07/19 08:35:42;;;;;;;9.30;2.50;;;;;;;;;;5064730;28;20045;-79
2023/07/19 08:38:08;;;;;;;7.10;2.40;;;;;;;;;;5064373;28;20053;-79
2023/07/19 08:40:37;;;;;;;7.18;2.50;;;;;;;;;;5049012;28;20049;-78
2023/07/19 08:43:05;;;;;;;8.18;2.28;;;;;;;;;;5062731;28;20037;-77
2023/07/19 08:45:31;;;;;;;5.30;1.92;;;;;;;;;;5041347;28;20148;-79
2023/07/19 08:47:57;;;;;;;6.53;1.90;;;;;;;;;;5058678;28;20092;-78
2023/07/19 08:50:24;;;;;;;3.97;1.42;;;;;;;;;;5059387;28;20049;-78
2023/07/19 08:52:50;;;;;;;6.47;1.63;;;;;;;;;;5058358;28;20041;-78
2023/07/19 08:55:16;;;;;;;5.40;1.75;;;;;;;;;;5041483;28;20037;-78
2023/07/19 08:57:46;;;;;;;6.38;2.13;;;;;;;;;;5058412;28;20041;-78
2023/07/19 09:00:16;;;;;;;7.53;1.83;;;;;;;;;;5058825;28;20044;-78
2023/07/19 09:02:42;;;;;;;5.10;1.55;;;;;;;;;;5058808;28;20099;-78
2023/07/19 09:05:09;;;;;;;4.75;1.48;;;;;;;;;;5059594;28;20075;-78
2023/07/19 09:07:36;;;;;;;6.43;1.60;;;;;;;;;;5060906;28;20045;-78
2023/07/19 09:10:02;;;;;;;7.47;1.52;;;;;;;;;;5059841;28;20106;-78
2023/07/19 09:12:43;;;;;;;5.55;1.40;;;;;;;;;;5063544;28;20048;-79
2023/07/19 09:15:10;;;;;;;7.18;1.73;;;;;;;;;;5045126;28;20037;-79
2023/07/19 09:17:37;;;;;;;5.55;1.33;;;;;;;;;;5049514;28;20037;-79
2023/07/19 09:20:04;;;;;;;4.90;1.40;;;;;;;;;;5064063;28;20044;-79
2023/07/19 09:22:30;;;;;;;3.88;1.08;;;;;;;;;;5063041;28;20472;-79
2023/07/19 09:25:01;;;;;;;5.60;1.20;;;;;;;;;;5064504;28;20124;-80
2023/07/19 09:27:27;;;;;;;;;;;;;;;;;;5064786;28;20044;-79
2023/07/19 09:29:53;;;;;;;5.72;1.33;;;;;;;;;;5065054;28;20026;-79
2023/07/19 09:32:20;;;;;;;6.10;1.30;;;;;;;;;;5045443;28;20075;-79
2023/07/19 09:34:46;;;;;;;4.63;1.45;;;;;;;;;;5064601;28;20064;-80
2023/07/19 09:37:12;;;;;;;5.85;1.38;;;;;;;;;;5062432;28;20041;-78
2023/07/19 09:39:40;;;;;;;6.63;1.20;;;;;;;;;;5061144;28;20049;-78
2023/07/19 09:42:08;;;;;;;5.53;1.40;;;;;;;;;;5056158;28;20044;-78
2023/07/19 09:44:36;;;;;;;4.78;1.50;;;;;;;;;;5040212;28;20570;-78
2023/07/19 09:47:02;;;;;;;7.88;2.05;;;;;;;;;;5063065;28;20072;-78
2023/07/19 09:49:29;;;;;;;4.95;1.40;;;;;;;;;;5068279;28;20532;-79
2023/07/19 09:51:56;;;;;;;5.63;1.77;;;;;;;;;;5064784;28;20360;-78
2023/07/19 09:54:25;;;;;;;7.78;1.98;;;;;;;;;;5065440;28;20056;-78
2023/07/19 09:56:51;;;;;;;5.95;1.60;;;;;;;;;;5059530;28;20415;-79
2023/07/19 09:59:30;;;;;;;7.65;1.83;;;;;;;;;;5059106;28;20396;-79
2023/07/19 10:01:56;;;;;;;8.32;1.60;;;;;;;;;;5041114;28;20071;-78
2023/07/19 10:04:22;;;;;;;6.20;1.70;;;;;;;;;;5057985;28;20431;-78
2023/07/19 10:06:49;;;;;;;7.38;1.55;;;;;;;;;;5059358;28;20483;-78
2023/07/19 10:09:25;;;;;;;8.95;1.80;;;;;;;;;;5057980;28;20056;-79
2023/07/19 10:11:51;;;;;;;6.72;1.63;;;;;;;;;;5058357;28;20057;-78
2023/07/19 10:14:26;;;;;;;5.78;1.60;;;;;;;;;;5057777;28;20407;-78
2023/07/19 10:16:57;;;;;;;7.82;1.85;;;;;;;;;;5059258;28;20056;-79
2023/07/19 10:19:23;;;;;;;7.88;1.60;;;;;;;;;;5058576;28;20120;-78
2023/07/19 10:22:08;;;;;;;6.55;1.50;;;;;;;;;;5063948;28;20049;-78
2023/07/19 10:24:35;;;;;;;6.03;1.63;;;;;;;;;;5058411;28;20055;-78
2023/07/19 10:27:03;;;;;;;7.65;1.75;;;;;;;;;;5059403;28;20055;-78
2023/07/19 10:29:38;;;;;;;6.03;1.52;;;;;;;;;;5062596;28;20049;-79
2023/07/19 10:32:04;;;;;;;4.80;1.60;;;;;;;;;;5061946;28;20207;-79
2023/07/19 10:34:30;;;;;;;5.55;1.40;;;;;;;;;;5058266;28;20497;-79
2023/07/19 10:37:01;;;;;;;7.00;1.33;;;;;;;;;;5059461;28;20043;-79
2023/07/19 10:39:27;;;;;;;7.30;2.17;;;;;;;;;;5039414;28;20045;-78
2023/07/19 10:41:53;;;;;;;7.05;2.00;;;;;;;;;;5040630;28;20123;-78
2023/07/19 10:44:21;;;;;;;4.82;1.73;;;;;;;;;;5059329;28;20061;-79
2023/07/19 10:46:47;;;;;;;6.35;1.60;;;;;;;;;;5059549;28;20399;-78
2023/07/19 10:49:14;;;;;;;5.82;1.63;;;;;;;;;;5060774;28;20045;-78
2023/07/19 10:51:50;;;;;;;5.97;2.00;;;;;;;;;;5060817;28;20053;-79
2023/07/19 10:54:17;;;;;;;6.60;1.75;;;;;;;;;;5060827;28;20119;-79
2023/07/19 10:56:43;;;;;;;6.53;1.60;;;;;;;;;;5060134;28;20037;-79
2023/07/19 10:59:10;;;;;;;6.35;1.80;;;;;;;;;;5043668;28;20044;-79
2023/07/19 11:01:36;;;;;;;7.22;1.88;;;;;;;;;;5064113;28;20052;-79
2023/07/19 11:04:07;;;;;;;8.63;2.10;;;;;;;;;;5040824;28;20045;-78
2023/07/19 11:06:33;;;;;;;;;;;;;;;;;;5043178;28;20053;-78
2023/07/19 11:09:06;;;;;;;7.78;1.80;;;;;;;;;;5046778;28;19947;-78
2023/07/19 11:11:36;;;;;;;7.10;2.00;;;;;;;;;;5058957;28;20423;-79
2023/07/19 11:14:02;;;;;;;6.63;2.03;;;;;;;;;;5059181;28;20116;-79
2023/07/19 11:16:29;;;;;;;8.18;2.13;;;;;;;;;;5057575;28;20049;-78
2023/07/19 11:18:55;;;;;;;4.88;1.60;;;;;;;;;;5056302;28;20044;-78
2023/07/19 11:21:28;;;;;;;5.80;1.80;;;;;;;;;;5057318;28;20057;-78
2023/07/19 11:23:55;;;;;;;5.35;1.58;;;;;;;;;;5057755;28;20060;-78
2023/07/19 11:26:21;;;;;;;7.32;2.03;;;;;;;;;;5038871;28;20410;-79
2023/07/19 11:28:55;;;;;;;9.70;2.35;;;;;;;;;;5056951;28;20049;-78
2023/07/19 11:31:31;;;;;;;15.00;3.42;;;;;;;;;;5053440;28;20056;-79
2023/07/19 11:34:09;;;;;;;11.60;3.08;;;;;;;;;;5054087;28;20052;-78
2023/07/19 11:36:39;;;;;;;5.57;1.98;;;;;;;;;;5052770;28;20548;-78
2023/07/19 11:39:05;;;;;;;5.07;1.77;;;;;;;;;;5051333;28;20041;-78
2023/07/19 11:41:32;;;;;;;7.95;2.33;;;;;;;;;;5052277;28;20053;-78
2023/07/19 11:43:58;;;;;;;5.82;1.75;;;;;;;;;;5052284;28;20049;-78
2023/07/19 11:46:24;;;;;;;6.50;2.08;;;;;;;;;;5052620;28;20052;-78
2023/07/19 11:48:51;;;;;;;6.28;1.75;;;;;;;;;;5033620;28;20048;-78
2023/07/19 11:51:17;;;;;;;5.72;2.17;;;;;;;;;;5050466;28;20120;-78
2023/07/19 11:53:43;;;;;;;4.32;1.50;;;;;;;;;;5052239;28;20484;-77
2023/07/19 11:56:10;;;;;;;5.45;1.90;;;;;;;;;;5052502;28;20049;-78
2023/07/19 11:58:36;;;;;;;6.47;2.10;;;;;;;;;;5051250;28;20047;-78
2023/07/19 12:01:03;;;;;;;5.70;1.85;;;;;;;;;;5034024;28;20114;-78
2023/07/19 12:03:29;;;;;;;5.32;1.92;;;;;;;;;;5051041;28;20041;-78
2023/07/19 12:05:55;;;;;;;5.07;2.00;;;;;;;;;;5054130;28;20067;-79
2023/07/19 12:08:21;;;;;;;5.22;1.75;;;;;;;;;;5056923;28;20049;-79
2023/07/19 12:10:48;;;;;;;5.57;1.75;;;;;;;;;;5042469;28;20049;-79
2023/07/19 12:13:14;;;;;;;5.18;1.60;;;;;;;;;;5040212;28;20114;-79
2023/07/19 12:15:40;;;;;;;6.18;1.70;;;;;;;;;;5039750;28;20459;-79
2023/07/19 12:18:06;;;;;;;6.95;1.95;;;;;;;;;;5047720;28;20044;-80
2023/07/19 12:20:32;;;;;;;4.93;1.40;;;;;;;;;;5036947;28;20140;-79
2023/07/19 12:22:58;;;;;;;3.97;1.65;;;;;;;;;;5051991;28;20558;-79
2023/07/19 12:25:24;;;;;;;5.57;2.00;;;;;;;;;;5022180;28;20084;-79
2023/07/19 12:27:52;;;;;;;5.75;2.17;;;;;;;;;;5055381;28;20116;-79
2023/07/19 12:30:19;;;;;;;5.50;2.10;;;;;;;;;;5057030;28;20048;-79
2023/07/19 12:32:45;;;;;;;6.85;2.72;;;;;;;;;;5056763;28;20045;-79
2023/07/19 12:35:11;;;;;;;6.90;2.83;;;;;;;;;;5056806;28;20521;-79
2023/07/19 12:37:37;;;;;;;6.28;2.70;;;;;;;;;;5055866;28;20135;-79
2023/07/19 12:40:08;;;;;;;5.80;3.10;;;;;;;;;;5054553;28;20086;-81
2023/07/19 12:42:35;;;;;;;6.07;2.30;;;;;;;;;;5037365;28;20050;-79
2023/07/19 12:45:01;;;;;;;6.55;2.92;;;;;;;;;;5036426;28;20049;-79
2023/07/19 12:47:27;;;;;;;5.68;2.80;;;;;;;;;;5037610;28;20085;-79
2023/07/19 12:49:53;;;;;;;9.50;2.90;;;;;;;;;;5056734;28;20041;-77
2023/07/19 12:52:20;;;;;;;5.47;2.40;;;;;;;;;;5055208;28;20052;-78
2023/07/19 12:54:46;;;;;;;6.40;2.42;;;;;;;;;;5038336;28;20080;-78
2023/07/19 12:57:12;;;;;;;6.50;2.65;;;;;;;;;;5055541;28;20053;-78
2023/07/19 12:59:40;;;;;;;6.95;2.67;;;;;;;;;;5056020;28;20126;-77
2023/07/19 13:02:07;;;;;;;8.40;2.53;;;;;;;;;;5055138;28;20079;-77
2023/07/19 13:04:33;;;;;;;6.07;2.38;;;;;;;;;;5055756;28;20049;-77
2023/07/19 13:06:59;;;;;;;6.82;2.63;;;;;;;;;;5055838;28;20041;-77
2023/07/19 13:09:25;;;;;;;6.70;2.60;;;;;;;;;;5055785;28;20041;-77
2023/07/19 13:11:51;;;;;;;6.72;3.00;;;;;;;;;;5036405;28;20135;-77
2023/07/19 13:14:17;;;;;;;5.10;2.70;;;;;;;;;;5055379;28;20052;-77
2023/07/19 13:16:43;;;;;;;7.15;3.00;;;;;;;;;;5055463;28;20045;-78
2023/07/19 13:19:10;;;;;;;7.32;3.10;;;;;;;;;;5055564;28;20049;-77
2023/07/19 13:21:36;;;;;;;13.48;4.90;;;;;;;;;;5054651;28;20044;-78
2023/07/19 13:24:02;;;;;;;9.15;3.35;;;;;;;;;;5059624;28;20557;-79
2023/07/19 13:26:28;;;;;;;7.88;3.47;;;;;;;;;;5056934;28;20064;-79
2023/07/19 13:28:54;;;;;;;8.48;3.85;;;;;;;;;;5057341;28;20049;-79
2023/07/19 13:31:20;;;;;;;8.20;3.40;;;;;;;;;;5058642;28;20430;-79
2023/07/19 13:33:46;;;;;;;8.95;3.70;;;;;;;;;;5055902;28;20067;-79
2023/07/19 13:36:14;;;;;;;8.50;3.38;;;;;;;;;;5058258;28;20044;-79
2023/07/19 13:38:40;;;;;;;6.88;3.72;;;;;;;;;;5058308;28;20123;-79
2023/07/19 13:41:06;;;;;;;7.43;3.70;;;;;;;;;;5058687;28;20041;-79
2023/07/19 13:43:32;;;;;;;8.23;3.80;;;;;;;;;;5059305;28;20442;-79
2023/07/19 13:45:58;;;;;;;8.55;3.75;;;;;;;;;;5055422;28;20045;-79
2023/07/19 13:48:24;;;;;;;8.07;3.95;;;;;;;;;;5054695;28;20049;-78
2023/07/19 13:50:50;;;;;;;8.82;3.83;;;;;;;;;;5055403;28;20043;-79
2023/07/19 13:53:16;;;;;;;8.30;3.60;;;;;;;;;;5055558;28;20137;-79
2023/07/19 13:55:43;;;;;;;6.95;3.63;;;;;;;;;;5055777;28;20053;-79
2023/07/19 13:58:09;;;;;;;7.85;3.78;;;;;;;;;;5056834;28;20051;-79
2023/07/19 14:00:35;;;;;;;6.47;2.80;;;;;;;;;;5056619;28;20101;-79
2023/07/19 14:03:01;;;;;;;7.53;3.22;;;;;;;;;;5055804;28;20045;-79
2023/07/19 14:05:27;;;;;;;8.60;3.20;;;;;;;;;;5056920;28;20056;-79
2023/07/19 14:07:53;;;;;;;9.40;3.65;;;;;;;;;;5057259;28;20053;-79
2023/07/19 14:10:19;;;;;;;5.47;2.40;;;;;;;;;;5044087;28;20139;-79
2023/07/19 14:12:47;;;;;;;8.27;3.03;;;;;;;;;;5056071;28;20498;-79
2023/07/19 14:15:15;;;;;;;9.73;4.15;;;;;;;;;;5054792;28;20091;-79
2023/07/19 14:17:41;;;;;;;9.10;3.83;;;;;;;;;;5054346;28;20045;-78
2023/07/19 14:20:07;;;;;;;7.82;3.92;;;;;;;;;;5057033;28;20041;-79
2023/07/19 14:22:33;;;;;;;7.13;3.95;;;;;;;;;;5057569;28;20045;-79
2023/07/19 14:24:59;;;;;;;8.98;4.13;;;;;;;;;;5058665;28;20044;-79
2023/07/19 14:27:25;;;;;;;6.47;3.10;;;;;;;;;;5058476;28;20056;-79
2023/07/19 14:29:52;;;;;;;6.70;3.15;;;;;;;;;;5055166;28;20103;-79
2023/07/19 14:32:18;;;;;;;6.97;3.53;;;;;;;;;;5054315;28;20173;-79
2023/07/19 14:34:44;;;;;;;6.20;3.05;;;;;;;;;;5055294;28;20461;-79
2023/07/19 14:37:10;;;;;;;5.72;2.67;;;;;;;;;;5055647;28;20395;-79